Latest Weather Observations for Hobart Airport

IDT60901

Issued at 8:21 am EST Friday 23 June 2017 (issued every 10 minutes, with the page automatically refreshed every 10 minutes)

About weather observations | Map of Hobart area stations | Latest observations for Hobart area | Other Formats
Station Details ID: 094008 Name: HOBART AIRPORT Lat: -42.83 Lon: 147.50 Height: 4.0 m
Data from the previous 72 hours. | See also: Recent months at Hobart Airport
Date/Time
EST
Temp
°C
App
Temp
°C
Dew
Point
°C
Rel
Hum
%
Delta-T
°C
Wind Press
QNH
hPa
Press
MSL
hPa
Rain since
9am
mm
Dir  Spd
km/h
Gust
km/h
Spd
kts
Gust
kts
23/08:00am 6.9 3.4 3.4 78 1.5 WNW 11 15 6 8 1007.8 1007.8 0.0
23/07:30am 7.2 4.2 4.2 81 1.3 WNW 9 11 5 6 1008.5 1008.5 0.0
23/07:00am 8.1 3.9 4.0 75 1.8 NW 15 19 8 10 1008.9 1008.9 0.0
23/06:30am 8.2 3.6 3.8 74 1.9 NNW 17 24 9 13 1008.8 1008.8 0.0
23/06:00am 8.2 4.3 3.3 71 2.1 NNW 13 19 7 10 1008.9 1008.9 0.0
23/05:30am 7.5 4.4 3.5 76 1.7 NNW 9 13 5 7 1008.9 1008.9 0.0
23/05:00am 7.2 2.9 3.4 77 1.6 N 15 19 8 10 1009.3 1009.3 0.0
23/04:30am 7.6 2.9 3.1 73 1.9 NNW 17 26 9 14 1010.0 1010.0 0.0
23/04:00am 7.5 3.2 3.0 73 1.9 NNW 15 22 8 12 1010.7 1010.7 0.0
23/03:30am 6.5 3.3 2.9 78 1.5 NNW 9 13 5 7 1011.2 1011.2 0.0
23/03:00am 7.0 2.2 2.7 74 1.8 NNW 17 26 9 14 1012.1 1012.1 0.0
23/02:30am 7.1 1.7 2.5 72 1.9 NNW 20 28 11 15 1012.6 1012.6 0.0
23/02:00am 6.8 2.7 2.4 73 1.8 NNW 13 22 7 12 1012.9 1012.9 0.0
23/01:30am 7.3 2.4 2.2 70 2.1 NNW 17 26 9 14 1013.4 1013.4 0.0
23/01:00am 7.2 2.6 1.8 68 2.2 NNW 15 20 8 11 1013.7 1013.7 0.0
23/12:30am 6.7 2.1 1.8 71 2.0 NNW 15 22 8 12 1014.1 1014.1 0.0
23/12:00am 6.6 3.7 1.4 69 2.1 W 6 9 3 5 1014.7 1014.7 0.0
 
Date/Time
EST
Temp
°C
App
Temp
°C
Dew
Point
°C
Rel
Hum
%
Delta-T
°C
Wind Press
QNH
hPa
Press
MSL
hPa
Rain since
9am
mm
Dir  Spd
km/h
Gust
km/h
Spd
kts
Gust
kts
22/11:30pm 6.0 2.5 1.5 73 1.8 WNW 9 15 5 8 1015.4 1015.5 0.0
22/11:00pm 6.7 4.1 0.9 66 2.3 N 4 11 2 6 1016.0 1016.1 0.0
22/10:30pm 5.9 1.6 1.1 71 1.9 NW 13 19 7 10 1016.5 1016.6 0.0
22/10:00pm 6.1 2.6 1.0 70 2.0 NNW 9 19 5 10 1016.9 1017.0 0.0
22/09:30pm 6.7 2.3 0.6 65 2.4 N 13 17 7 9 1017.0 1017.1 0.0
22/09:00pm 6.5 2.1 0.6 66 2.3 NNW 13 19 7 10 1017.2 1017.3 0.0
22/08:30pm 6.6 1.5 0.5 65 2.4 NNW 17 24 9 13 1017.3 1017.4 0.0
22/08:00pm 6.7 1.2 0.3 63 2.5 NNW 19 26 10 14 1017.2 1017.3 0.0
22/07:30pm 7.2 2.4 0.3 61 2.7 NNW 15 19 8 10 1018.0 1018.1 0.0
22/07:00pm 6.7 2.4 1.2 68 2.2 N 13 19 7 10 1018.4 1018.5 0.0
22/06:30pm 5.9 1.7 1.4 73 1.8 NNW 13 17 7 9 1018.7 1018.8 0.0
22/06:00pm 7.1 3.6 1.4 67 2.3 NW 9 11 5 6 1019.0 1019.1 0.0
22/05:30pm 7.2 3.2 0.3 61 2.7 N 11 15 6 8 1019.2 1019.3 0.0
22/05:00pm 6.4 2.9 1.1 69 2.1 N 9 11 5 6 1019.7 1019.8 0.0
22/04:30pm 8.9 5.7 0.7 56 3.3 NE 7 9 4 5 1020.2 1020.3 0.0
22/04:00pm 10.0 6.7 0.3 51 3.9 NNE 7 11 4 6 1020.2 1020.3 0.0
22/03:30pm 10.2 5.7 0.0 49 4.1 NNW 13 15 7 8 1020.3 1020.4 0.0
22/03:00pm 10.6 6.0 -1.1 44 4.6 NNW 13 19 7 10 1021.0 1021.1 0.0
22/02:30pm 10.5 5.9 -0.9 45 4.5 NNW 13 19 7 10 1021.3 1021.4 0.0
22/02:00pm 10.5 5.9 -0.9 45 4.5 NW 13 17 7 9 1021.6 1021.7 0.0
22/01:30pm 10.6 5.2 -1.5 43 4.7 NW 17 26 9 14 1022.3 1022.4 0.0
22/01:00pm 10.1 4.3 0.2 50 4.0 NW 20 28 11 15 1022.7 1022.8 0.0
22/12:30pm 9.3 3.7 -0.3 51 3.8 NW 19 30 10 16 1023.4 1023.5 0.0
22/12:00pm 8.5 3.8 0.8 58 3.1 NNW 15 22 8 12 1023.9 1024.0 0.0
22/11:30am 7.9 3.2 0.6 60 2.9 N 15 19 8 10 1024.4 1024.5 0.0
22/11:00am 7.0 2.7 0.9 65 2.4 NNW 13 19 7 10 1025.0 1025.1 0.0
22/10:30am 5.4 0.6 0.5 71 1.9 NW 15 22 8 12 1025.6 1025.7 0.0
22/10:00am 4.8 0.0 0.3 72 1.7 NW 15 22 8 12 1025.8 1025.9 0.0
22/09:30am 3.8 0.2 0.6 79 1.2 NW 9 17 5 9 1026.2 1026.3 0.0
22/09:00am 2.3 -1.4 0.1 85 0.8 WNW 9 13 5 7 1026.5 1026.6 0.0
22/08:30am 1.7 -2.8 -0.5 85 0.8 NW 13 15 7 8 1026.6 1026.7 0.0
22/08:00am 0.5 -4.1 -0.8 91 0.5 NW 13 17 7 9 1026.8 1026.9 0.0
22/07:30am 1.3 -2.9 -0.7 86 0.7 NW 11 19 6 10 1027.0 1027.1 0.0
22/07:00am 1.8 -1.5 -0.1 87 0.7 NNW 7 13 4 7 1027.2 1027.3 0.0
22/06:30am 1.8 -2.7 -0.1 87 0.7 NW 13 19 7 10 1027.3 1027.4 0.0
22/06:00am 1.6 -3.6 0.2 90 0.5 NW 17 20 9 11 1027.4 1027.5 0.0
22/05:30am 2.7 -3.1 0.0 82 1.0 NW 20 28 11 15 1027.4 1027.5 0.0
22/05:00am 2.3 -3.3 0.1 85 0.8 NW 19 20 10 11 1027.4 1027.5 0.0
22/04:30am 2.2 -2.2 0.3 87 0.7 NW 13 20 7 11 1027.6 1027.7 0.0
22/04:00am 2.4 -2.0 0.2 85 0.8 NNW 13 19 7 10 1027.7 1027.8 0.0
22/03:30am 2.1 -1.6 0.2 87 0.7 NW 9 15 5 8 1027.9 1028.0 0.0
22/03:00am 0.7 -3.1 -0.4 92 0.4 WNW 9 13 5 7 1028.1 1028.2 0.0
22/02:30am 1.9 -3.6 0.3 89 0.6 WNW 19 19 10 10 1028.5 1028.6 0.0
22/02:00am 2.0 -3.6 0.1 87 0.7 NW 19 22 10 12 1028.6 1028.7 0.0
22/01:30am 2.5 -2.7 0.3 85 0.8 WNW 17 19 9 10 1028.7 1028.8 0.0
22/01:00am 2.2 -3.0 0.3 87 0.7 NW 17 19 9 10 1028.9 1029.0 0.0
22/12:30am 3.1 -1.6 0.7 84 0.9 NNW 15 19 8 10 1029.0 1029.1 0.0
22/12:00am 2.7 -2.0 0.6 86 0.8 NW 15 17 8 9 1029.2 1029.3 0.0
 
Date/Time
EST
Temp
°C
App
Temp
°C
Dew
Point
°C
Rel
Hum
%
Delta-T
°C
Wind Press
QNH
hPa
Press
MSL
hPa
Rain since
9am
mm
Dir  Spd
km/h
Gust
km/h
Spd
kts
Gust
kts
21/11:30pm 3.7 -0.3 0.8 81 1.1 NW 11 15 6 8 1029.3 1029.4 0.0
21/11:00pm 4.2 -0.1 1.1 80 1.2 NW 13 15 7 8 1029.4 1029.5 0.0
21/10:30pm 4.4 0.2 1.6 82 1.1 NW 13 15 7 8 1029.4 1029.5 0.0
21/10:00pm 4.5 0.3 1.4 80 1.2 WNW 13 15 7 8 1029.4 1029.5 0.0
21/09:30pm 4.6 0.8 1.5 80 1.2 NW 11 15 6 8 1029.4 1029.5 0.0
21/09:00pm 4.5 0.9 0.6 76 1.5 WNW 9 13 5 7 1029.4 1029.5 0.0
21/08:30pm 4.7 1.6 1.4 79 1.3 NW 7 9 4 5 1029.2 1029.3 0.0
21/08:00pm 5.2 2.1 1.1 75 1.6 NW 7 11 4 6 1029.3 1029.4 0.0
21/07:30pm 5.8 2.0 1.8 75 1.6 NW 11 13 6 7 1029.3 1029.4 0.0
21/07:00pm 5.1 3.0 1.5 77 1.4 NW 2 6 1 3 1029.0 1029.1 0.0
21/06:30pm 6.0 2.8 0.6 68 2.1 W 7 9 4 5 1028.6 1028.7 0.0
21/06:00pm 6.0 3.0 1.7 74 1.7 NNW 7 9 4 5 1028.3 1028.4 0.0
21/05:30pm 6.6 3.6 1.0 67 2.2 S 6 7 3 4 1027.9 1028.0 0.0
21/05:00pm 8.3 5.3 0.5 58 3.1 SW 6 9 3 5 1027.6 1027.7 0.0
21/04:30pm 9.2 6.1 0.1 53 3.6 W 6 7 3 4 1027.2 1027.3 0.0
21/04:00pm 10.6 6.8 -0.5 46 4.4 W 9 11 5 6 1027.0 1027.1 0.0
21/03:30pm 10.6 6.8 -0.8 45 4.5 SSW 9 13 5 7 1026.8 1026.9 0.0
21/03:00pm 9.6 5.4 -0.6 49 4.0 SSW 11 15 6 8 1026.6 1026.7 0.0
21/02:30pm 10.6 6.6 -1.9 41 4.8 SSW 9 11 5 6 1026.3 1026.4 0.0
21/02:00pm 9.7 5.0 -1.8 44 4.4 SW 13 19 7 10 1026.1 1026.2 0.0
21/01:30pm 9.9 4.8 -2.3 42 4.6 WSW 15 22 8 12 1026.0 1026.1 0.0
21/01:00pm 10.6 5.2 -1.2 44 4.6 WNW 17 22 9 12 1025.8 1025.9 0.0
21/12:30pm 11.0 5.4 -2.7 38 5.2 W 17 22 9 12 1025.8 1025.9 0.0
21/12:00pm 11.2 6.1 -2.0 39 5.1 NW 15 24 8 13 1025.8 1025.9 0.0
21/11:30am 9.6 4.6 -0.9 48 4.1 WSW 15 20 8 11 1025.9 1026.0 0.0
21/11:00am 9.5 4.5 -1.4 46 4.2 SW 15 24 8 13 1026.1 1026.2 0.0
21/10:30am 10.4 5.9 -0.4 47 4.3 WSW 13 19 7 10 1025.9 1026.0 0.0
21/10:00am 8.9 3.5 -1.3 49 3.9 WSW 17 22 9 12 1025.7 1025.8 0.0
21/09:30am 8.7 2.9 -0.2 53 3.5 SW 20 33 11 18 1025.2 1025.3 0.0
21/09:00am 7.9 4.7 0.9 61 2.8 SW 7 15 4 8 1025.2 1025.3 1.8
21/08:30am 7.5 4.8 0.4 61 2.8 NNW 4 9 2 5 1024.4 1024.5 1.8
21/08:00am 5.4 1.8 0.5 71 1.9 NW 9 13 5 7 1023.7 1023.8 1.8
21/07:30am 3.9 1.2 0.2 77 1.4 NW 4 7 2 4 1023.1 1023.2 1.8
21/07:00am 5.9 3.6 0.2 67 2.2 SW 2 7 1 4 1022.6 1022.7 1.8
21/06:30am 7.0 3.4 0.4 63 2.6 WNW 9 11 5 6 1021.8 1021.9 1.8
21/06:00am 6.9 3.1 -1.0 57 3.0 NW 9 11 5 6 1021.3 1021.4 1.8
21/05:30am 5.4 2.4 1.1 74 1.7 WNW 6 9 3 5 1020.6 1020.7 1.8
21/05:00am 7.8 4.5 -1.1 53 3.4 NW 6 7 3 4 1020.1 1020.2 1.8
21/04:30am 8.4 3.9 -0.6 53 3.5 WNW 13 19 7 10 1019.6 1019.7 1.8
21/04:00am 8.9 4.3 -0.9 50 3.8 W 13 19 7 10 1019.2 1019.3 1.8
21/03:30am 9.6 1.6 -2.7 42 4.6 W 30 39 16 21 1018.2 1018.3 1.8
21/03:00am 9.7 3.1 -2.9 41 4.7 NW 22 32 12 17 1018.3 1018.4 1.8
21/02:30am 9.3 4.7 -1.0 48 4.0 N 13 26 7 14 1017.8 1017.9 1.8
21/02:00am 9.8 4.3 -2.3 42 4.6 W 17 26 9 14 1017.2 1017.3 1.8
21/01:30am 10.0 5.8 -0.6 47 4.2 SW 11 24 6 13 1016.5 1016.6 1.8
21/01:00am 10.4 1.7 -0.7 46 4.4 WNW 35 48 19 26 1015.1 1015.2 1.8
21/12:30am 10.6 0.6 0.9 51 4.0 W 43 56 23 30 1014.9 1014.9 1.8
21/12:00am 11.3 -1.3 0.3 46 4.5 W 56 76 30 41 1014.4 1014.4 1.8
 
Date/Time
EST
Temp
°C
App
Temp
°C
Dew
Point
°C
Rel
Hum
%
Delta-T
°C
Wind Press
QNH
hPa
Press
MSL
hPa
Rain since
9am
mm
Dir  Spd
km/h
Gust
km/h
Spd
kts
Gust
kts
20/11:30pm 11.6 1.5 1.7 50 4.2 W 44 69 24 37 1014.3 1014.3 1.8
20/11:01pm 12.0 2.5 1.7 49 4.4 WNW 41 61 22 33 1013.8 1013.8 1.8
20/11:00pm 12.1 2.6 1.5 48 4.5 W 41 56 22 30 1013.7 1013.7 1.8
20/10:35pm 12.0 2.6 2.3 51 4.2 W 41 59 22 32 1013.4 1013.4 1.8
20/10:30pm 12.1 3.5 2.4 51 4.2 W 37 50 20 27 1013.3 1013.3 1.8
20/10:00pm 12.7 2.6 1.5 46 4.8 W 44 70 24 38 1012.7 1012.7 1.8
20/09:31pm 12.9 3.4 5.1 59 3.6 W 44 70 24 38 1012.3 1012.3 1.8
20/09:30pm 12.8 3.4 5.3 60 3.5 W 44 70 24 38 1012.3 1012.3 1.8
20/09:03pm 12.8 6.6 9.5 80 1.7 WNW 32 54 17 29 1011.8 1011.8 1.8
20/09:00pm 13.0 6.8 9.3 78 1.9 WNW 32 43 17 23 1011.6 1011.6 1.2
20/08:30pm 14.5 8.0 6.4 58 3.9 NW 30 57 16 31 1010.3 1010.3 0.0
20/08:16pm 15.4 8.4 3.9 46 5.3 NW 30 48 16 26 1009.6 1009.6 0.0
20/08:00pm 15.4 8.4 3.9 46 5.3 NW 30 43 16 23 1009.2 1009.2 0.0
20/07:30pm 15.3 7.8 3.2 44 5.5 NW 32 44 17 24 1008.9 1008.9 0.0
20/07:09pm 15.0 7.6 3.9 47 5.1 NNW 32 50 17 27 1008.8 1008.8 0.0
20/07:00pm 15.1 7.5 4.1 47 5.1 NNW 33 50 18 27 1009.0 1009.0 0.0
20/06:30pm 15.1 7.0 3.5 46 5.3 NNW 35 54 19 29 1009.4 1009.4 0.0
20/06:00pm 15.4 8.6 3.1 43 5.6 NNW 28 50 15 27 1009.9 1009.9 0.0
20/05:58pm 15.0 8.3 3.4 45 5.3 NNW 28 50 15 27 1009.9 1009.9 0.0
20/05:30pm 15.2 9.9 3.1 44 5.5 N 20 32 11 17 1010.7 1010.7 0.0
20/05:00pm 14.9 10.3 3.5 46 5.2 NNW 17 32 9 17 1011.6 1011.6 0.0
20/04:30pm 15.7 9.4 3.8 45 5.5 NNW 26 37 14 20 1012.4 1012.4 0.0
20/04:00pm 15.5 9.3 4.3 47 5.2 NW 26 39 14 21 1012.6 1012.6 0.0
20/03:30pm 16.4 8.8 3.0 40 6.1 NW 32 52 17 28 1012.9 1012.9 0.0
20/03:00pm 16.8 7.9 3.1 40 6.3 NW 39 61 21 33 1013.0 1013.0 0.0
20/02:30pm 16.8 9.0 2.7 39 6.4 NW 33 61 18 33 1013.3 1013.3 0.0
20/02:00pm 16.8 7.1 3.0 39 6.3 NW 43 61 23 33 1013.6 1013.6 0.0
20/01:30pm 17.0 9.8 5.1 45 5.7 NW 32 46 17 25 1013.9 1013.9 0.0
20/01:04pm 17.3 10.4 4.4 42 6.1 NW 30 48 16 26 1014.1 1014.1 0.0
20/01:00pm 17.2 11.0 4.5 43 6.0 NW 26 39 14 21 1014.1 1014.1 0.0
20/12:30pm 15.8 12.0 5.6 50 4.9 N 15 26 8 14 1014.7 1014.7 0.0
20/12:00pm 15.2 9.6 5.5 52 4.6 N 24 33 13 18 1015.3 1015.4 0.0
20/11:30am 15.2 10.0 5.3 51 4.7 N 22 33 12 18 1016.0 1016.1 0.0
20/11:00am 16.0 10.6 4.7 47 5.3 NNW 22 32 12 17 1016.7 1016.8 0.0
20/10:30am 14.4 9.4 4.4 51 4.6 N 20 30 11 16 1017.2 1017.3 0.0
20/10:00am 13.5 8.1 4.3 53 4.2 NNW 22 35 12 19 1017.6 1017.7 0.0
20/09:30am 12.3 6.9 4.4 58 3.6 NNW 22 35 12 19 1017.9 1018.0 0.0
20/09:00am 11.6 6.8 4.5 61 3.2 N 19 28 10 15 1018.4 1018.5 0.0
20/08:30am 11.3 7.2 4.4 62 3.1 N 15 24 8 13 1018.9 1019.0 0.0

Latest Capital City Observations: Canberra | Sydney | Melbourne | Brisbane | Adelaide | Perth | Hobart | Darwin

Other Formats:

Comma delimited format used in spreadsheet applications
http://www.bom.gov.au/fwo/IDT60901/IDT60901.94975.axf

JavaScript Object Notation format (JSON) in row-major order
http://www.bom.gov.au/fwo/IDT60901/IDT60901.94975.json